createdAt,value
2018-09-14T00:02:12.467Z,67.54
2018-09-14T00:04:40.841Z,66.70
2018-09-14T00:07:09.260Z,67.35
2018-09-14T00:09:37.678Z,67.49
2018-09-14T00:12:06.129Z,67.68
2018-09-14T00:14:34.506Z,67.43
2018-09-14T00:17:03.633Z,67.76
2018-09-14T00:19:32.028Z,67.66
2018-09-14T00:22:00.465Z,67.84
2018-09-14T00:24:28.853Z,68.17
2018-09-14T00:26:57.297Z,67.21
2018-09-14T00:29:25.694Z,67.37
2018-09-14T00:31:54.125Z,68.12
2018-09-14T00:34:22.521Z,68.07
2018-09-14T00:36:50.965Z,67.99
2018-09-14T00:39:19.425Z,67.44
2018-09-14T00:41:47.847Z,67.21
2018-09-14T00:44:16.262Z,68.50
2018-09-14T00:46:44.640Z,68.85
2018-09-14T00:49:13.077Z,69.03
2018-09-14T00:51:41.478Z,69.21
2018-09-14T00:54:09.937Z,69.31
2018-09-14T00:56:38.337Z,69.88
2018-09-14T00:59:06.841Z,69.79
2018-09-14T01:01:35.232Z,69.98
2018-09-14T01:04:03.689Z,70.84
2018-09-14T01:06:32.093Z,71.48
2018-09-14T01:09:00.513Z,71.34
2018-09-14T01:11:28.956Z,70.82
2018-09-14T01:13:57.386Z,70.72
2018-09-14T01:16:25.777Z,71.21
2018-09-14T01:18:54.210Z,72.04
2018-09-14T01:21:22.605Z,72.07
2018-09-14T01:23:51.029Z,72.07
2018-09-14T01:26:19.453Z,72.04
2018-09-14T01:28:48.062Z,71.89
2018-09-14T01:31:16.439Z,71.82
2018-09-14T01:33:44.873Z,72.11
2018-09-14T01:36:13.298Z,72.06
2018-09-14T01:38:42.213Z,72.30
2018-09-14T01:41:10.925Z,72.19
2018-09-14T01:43:39.529Z,72.28
2018-09-14T01:46:08.421Z,72.98
2018-09-14T01:48:36.809Z,71.84
2018-09-14T01:51:05.274Z,71.92
2018-09-14T01:53:33.708Z,71.94
2018-09-14T01:56:02.137Z,72.48
2018-09-14T01:58:30.824Z,71.91
2018-09-14T02:00:59.253Z,72.18
2018-09-14T02:03:27.685Z,72.03
2018-09-14T02:05:56.079Z,71.63
2018-09-14T02:08:24.457Z,71.21
2018-09-14T02:10:52.916Z,71.75
2018-09-14T02:13:21.299Z,70.86
2018-09-14T02:15:49.723Z,70.51
2018-09-14T02:18:18.115Z,70.64
2018-09-14T02:20:46.542Z,70.10
2018-09-14T02:23:14.914Z,69.45
2018-09-14T02:25:43.410Z,69.79
2018-09-14T02:28:11.775Z,69.63
2018-09-14T02:30:40.200Z,69.67
2018-09-14T02:33:08.590Z,69.50
2018-09-14T02:35:37.013Z,69.88
2018-09-14T02:38:05.445Z,70.57
2018-09-14T02:40:33.823Z,70.79
2018-09-14T02:43:03.041Z,71.16
2018-09-14T02:45:31.442Z,71.47
2018-09-14T02:47:59.845Z,71.49
2018-09-14T02:50:28.230Z,71.00
2018-09-14T02:52:56.647Z,70.07
2018-09-14T02:55:25.118Z,70.26
2018-09-14T02:57:53.521Z,70.40
2018-09-14T03:00:21.954Z,70.56
2018-09-14T03:02:50.398Z,70.95
2018-09-14T03:05:18.773Z,70.99
2018-09-14T03:07:47.190Z,70.75
2018-09-14T03:10:15.600Z,71.02
2018-09-14T03:12:44.015Z,71.02
2018-09-14T03:15:12.417Z,71.53
2018-09-14T03:17:40.829Z,71.98
2018-09-14T03:20:09.234Z,72.10
2018-09-14T03:22:37.728Z,71.93
2018-09-14T03:25:06.157Z,72.11
2018-09-14T03:27:34.580Z,71.43
2018-09-14T03:30:03.745Z,71.36
2018-09-14T03:32:32.125Z,71.41
2018-09-14T03:35:00.533Z,71.42
2018-09-14T03:37:28.917Z,71.40
2018-09-14T03:39:57.338Z,71.77
2018-09-14T03:42:25.774Z,71.98
2018-09-14T03:44:54.217Z,71.73
2018-09-14T03:47:22.598Z,71.78
2018-09-14T03:49:51.008Z,71.69
2018-09-14T03:52:19.401Z,71.16
2018-09-14T03:54:47.823Z,70.35
2018-09-14T03:57:16.249Z,71.26
2018-09-14T03:59:44.638Z,71.42
2018-09-14T04:02:13.025Z,71.54
2018-09-14T04:04:41.441Z,71.01
2018-09-14T04:07:09.810Z,71.38
2018-09-14T04:09:38.243Z,70.83
2018-09-14T04:12:06.675Z,70.73
2018-09-14T04:14:35.099Z,70.82
2018-09-14T04:17:03.618Z,70.37
2018-09-14T04:19:32.049Z,70.93
2018-09-14T04:22:00.441Z,70.93
2018-09-14T04:24:28.821Z,71.27
2018-09-14T04:26:57.229Z,71.25
2018-09-14T04:29:25.629Z,71.49
2018-09-14T04:31:54.033Z,71.14
2018-09-14T04:34:22.408Z,71.05
2018-09-14T04:36:50.842Z,70.91
2018-09-14T04:39:19.206Z,71.45
2018-09-14T04:41:47.610Z,72.13
2018-09-14T04:44:16.009Z,72.45
2018-09-14T04:46:44.409Z,71.43
2018-09-14T04:49:12.785Z,70.91
2018-09-14T04:51:41.216Z,70.86
2018-09-14T04:54:09.605Z,70.49
2018-09-14T04:56:38.047Z,70.32
2018-09-14T04:59:06.482Z,70.57
2018-09-14T05:01:34.965Z,69.83
2018-09-14T05:04:03.626Z,70.09
2018-09-14T05:06:32.037Z,70.62
2018-09-14T05:09:00.422Z,70.93
2018-09-14T05:11:28.882Z,70.77
2018-09-14T05:13:57.285Z,70.01
2018-09-14T05:16:25.714Z,70.12
2018-09-14T05:18:54.180Z,70.41
2018-09-14T05:21:22.614Z,70.54
2018-09-14T05:23:51.076Z,70.14
2018-09-14T05:26:19.481Z,69.25
2018-09-14T05:28:47.894Z,69.50
2018-09-14T05:31:16.304Z,69.98
2018-09-14T05:33:44.835Z,69.58
2018-09-14T05:36:13.214Z,69.92
2018-09-14T05:38:41.657Z,69.73
2018-09-14T05:41:10.075Z,69.77
2018-09-14T05:43:38.485Z,69.55
2018-09-14T05:46:06.909Z,69.56
2018-09-14T05:48:35.320Z,68.30
2018-09-14T05:51:03.721Z,68.23
2018-09-14T05:53:32.149Z,67.89
2018-09-14T05:56:00.541Z,67.58
2018-09-14T05:58:28.979Z,68.05
2018-09-14T06:00:57.446Z,67.88
2018-09-14T06:03:25.863Z,67.90
2018-09-14T06:05:54.232Z,68.93
2018-09-14T06:08:22.645Z,68.11
2018-09-14T06:10:51.097Z,68.46
2018-09-14T06:13:19.477Z,68.17
2018-09-14T06:15:47.889Z,68.33
2018-09-14T06:18:16.258Z,68.62
2018-09-14T06:20:44.673Z,68.28
2018-09-14T06:23:13.071Z,68.11
2018-09-14T06:25:43.274Z,68.43
2018-09-14T06:28:11.657Z,69.16
2018-09-14T06:30:40.069Z,69.15
2018-09-14T06:33:08.454Z,69.65
2018-09-14T06:35:36.866Z,69.58
2018-09-14T06:38:05.268Z,69.92
2018-09-14T06:40:33.688Z,69.89
2018-09-14T06:43:02.079Z,69.46
2018-09-14T06:45:30.531Z,69.46
2018-09-14T06:47:58.905Z,69.46
2018-09-14T06:50:27.307Z,68.92
2018-09-14T06:52:55.681Z,69.21
2018-09-14T06:55:24.093Z,68.95
2018-09-14T06:57:52.469Z,69.11
2018-09-14T07:00:21.005Z,69.26
2018-09-14T07:02:49.317Z,69.54
2018-09-14T07:05:17.757Z,69.28
2018-09-14T07:07:46.169Z,68.84
2018-09-14T07:10:14.549Z,68.86
2018-09-14T07:12:42.996Z,68.64
2018-09-14T07:15:11.410Z,67.77
2018-09-14T07:17:39.861Z,68.30
2018-09-14T07:20:08.318Z,67.78
2018-09-14T07:22:36.756Z,67.56
2018-09-14T07:25:05.176Z,67.60
2018-09-14T07:27:33.577Z,67.34
2018-09-14T07:30:02.003Z,67.27
2018-09-14T07:32:30.443Z,67.21
2018-09-14T07:34:59.170Z,66.58
2018-09-14T07:37:27.572Z,66.01
2018-09-14T07:39:55.965Z,66.06
2018-09-14T07:42:24.433Z,66.43
2018-09-14T07:44:53.294Z,66.27
2018-09-14T07:47:21.730Z,66.11
2018-09-14T07:49:50.189Z,65.85
2018-09-14T07:52:18.605Z,66.13
2018-09-14T07:54:47.006Z,65.89
2018-09-14T07:57:15.606Z,65.83
2018-09-14T07:59:44.062Z,66.20
2018-09-14T08:02:12.579Z,66.47
2018-09-14T08:04:41.061Z,66.38
2018-09-14T08:07:09.441Z,65.85
2018-09-14T08:09:37.906Z,65.71
2018-09-14T08:12:06.395Z,65.65
2018-09-14T08:14:34.829Z,65.58
2018-09-14T08:17:03.580Z,65.13
2018-09-14T08:19:32.262Z,65.40
2018-09-14T08:22:00.854Z,65.64
2018-09-14T08:24:29.268Z,65.80
2018-09-14T08:26:57.771Z,65.63
2018-09-14T08:29:26.089Z,66.08
2018-09-14T08:31:54.500Z,66.10
2018-09-14T08:34:22.950Z,65.98
2018-09-14T08:36:51.469Z,65.52
2018-09-14T08:39:19.898Z,64.99
2018-09-14T08:41:48.286Z,65.17
2018-09-14T08:44:17.566Z,64.60
2018-09-14T08:46:45.960Z,64.73
2018-09-14T08:49:15.083Z,63.81
2018-09-14T08:51:43.478Z,63.76
2018-09-14T08:54:11.913Z,63.38
2018-09-14T08:56:40.297Z,62.30
2018-09-14T08:59:08.732Z,61.79
2018-09-14T09:01:37.186Z,61.79
2018-09-14T09:04:05.629Z,60.40
2018-09-14T09:06:34.058Z,60.80
2018-09-14T09:09:02.978Z,60.72
2018-09-14T09:11:31.478Z,61.03
2018-09-14T09:13:59.896Z,61.95
2018-09-14T09:16:28.334Z,62.14
2018-09-14T09:18:56.748Z,60.66
2018-09-14T09:21:25.609Z,59.94
2018-09-14T09:23:53.995Z,59.93
2018-09-14T09:26:22.544Z,59.65
2018-09-14T09:28:50.908Z,59.47
2018-09-14T09:31:19.402Z,59.30
2018-09-14T09:33:47.790Z,59.75
2018-09-14T09:36:16.276Z,59.54
2018-09-14T09:38:44.829Z,59.13
2018-09-14T09:41:13.415Z,59.23
2018-09-14T09:43:41.903Z,58.75
2018-09-14T09:46:10.271Z,58.53
2018-09-14T09:48:38.685Z,59.26
2018-09-14T09:51:07.184Z,58.20
2018-09-14T09:53:35.605Z,57.43
2018-09-14T09:56:04.075Z,57.79
2018-09-14T09:58:32.486Z,58.03
2018-09-14T10:01:06.219Z,58.44
2018-09-14T10:03:40.095Z,57.90
2018-09-14T10:06:13.693Z,57.89
2018-09-14T10:08:42.222Z,57.31
2018-09-14T10:11:10.629Z,57.63
2018-09-14T10:13:39.104Z,57.67
2018-09-14T10:16:07.541Z,57.23
2018-09-14T10:18:35.949Z,57.21
2018-09-14T10:21:04.376Z,56.67
2018-09-14T10:23:32.837Z,56.67
2018-09-14T10:26:01.984Z,55.96
2018-09-14T10:28:30.438Z,56.52
2018-09-14T10:30:58.837Z,56.00
2018-09-14T10:33:27.257Z,57.54
2018-09-14T10:35:55.654Z,57.96
2018-09-14T10:38:24.097Z,59.04
2018-09-14T10:40:52.521Z,59.05
2018-09-14T10:43:20.917Z,58.79
2018-09-14T10:45:49.463Z,59.68
2018-09-14T10:48:18.041Z,59.22
2018-09-14T10:50:46.615Z,58.28
2018-09-14T10:53:15.101Z,58.31
2018-09-14T10:55:43.505Z,58.83
2018-09-14T10:58:11.885Z,57.98
2018-09-14T11:00:40.314Z,58.12
2018-09-14T11:03:08.726Z,58.74
2018-09-14T11:05:37.183Z,58.41
2018-09-14T11:08:05.623Z,57.88
2018-09-14T11:10:34.053Z,57.31
2018-09-14T11:13:03.018Z,57.15
2018-09-14T11:15:32.382Z,57.68
2018-09-14T11:18:00.821Z,57.75
2018-09-14T11:20:29.756Z,57.03
2018-09-14T11:22:58.189Z,56.77
2018-09-14T11:25:26.727Z,56.33
2018-09-14T11:27:55.040Z,55.46
2018-09-14T11:30:23.418Z,55.86
2018-09-14T11:32:51.849Z,54.91
2018-09-14T11:35:20.225Z,55.41
2018-09-14T11:37:48.695Z,55.09
2018-09-14T11:40:17.061Z,55.89
2018-09-14T11:42:45.474Z,55.77
2018-09-14T11:45:13.871Z,55.40
2018-09-14T11:47:42.277Z,56.40
2018-09-14T11:50:10.650Z,56.25
2018-09-14T11:52:39.049Z,56.07
2018-09-14T11:55:07.426Z,55.97
2018-09-14T11:57:35.829Z,56.62
2018-09-14T12:00:04.265Z,56.24
2018-09-14T12:02:32.697Z,56.25
2018-09-14T12:05:01.075Z,56.14
2018-09-14T12:07:32.772Z,56.08
2018-09-14T12:10:01.175Z,56.55
2018-09-14T12:12:29.585Z,56.34
2018-09-14T12:14:58.063Z,56.11
2018-09-14T12:17:26.401Z,55.49
2018-09-14T12:19:54.809Z,54.44
2018-09-14T12:22:23.330Z,54.84
2018-09-14T12:24:52.198Z,55.28
2018-09-14T12:27:21.298Z,54.41
2018-09-14T12:29:49.709Z,54.42
2018-09-14T12:32:18.181Z,52.50
2018-09-14T12:34:46.590Z,53.40
2018-09-14T12:37:15.024Z,53.17
2018-09-14T12:39:43.501Z,53.67
2018-09-14T12:42:11.909Z,52.49
2018-09-14T12:44:40.330Z,52.74
2018-09-14T12:47:10.562Z,52.05
2018-09-14T12:49:38.996Z,51.47
2018-09-14T12:52:07.417Z,51.15
2018-09-14T12:54:37.267Z,52.29
2018-09-14T12:57:05.681Z,52.47
2018-09-14T12:59:34.141Z,52.83
2018-09-14T13:02:02.589Z,53.30
2018-09-14T13:04:30.969Z,52.83
2018-09-14T13:06:59.368Z,51.66
2018-09-14T13:09:27.749Z,51.46
2018-09-14T13:11:56.193Z,51.05
2018-09-14T13:14:25.232Z,51.09
2018-09-14T13:16:53.701Z,52.12
2018-09-14T13:19:22.181Z,52.04
2018-09-14T13:21:50.594Z,50.80
2018-09-14T13:24:19.054Z,50.67
2018-09-14T13:26:47.434Z,49.06
2018-09-14T13:29:15.946Z,49.56
2018-09-14T13:31:44.977Z,48.28
2018-09-14T13:34:13.441Z,48.12
2018-09-14T13:36:41.880Z,48.50
2018-09-14T13:39:11.091Z,48.59
2018-09-14T13:41:39.566Z,49.88
2018-09-14T13:44:08.073Z,49.80
2018-09-14T13:46:36.765Z,50.14
2018-09-14T13:49:05.226Z,51.09
2018-09-14T13:51:33.831Z,50.91
2018-09-14T13:54:02.802Z,50.16
2018-09-14T13:56:31.246Z,49.55
2018-09-14T13:58:59.666Z,49.83
2018-09-14T14:01:28.132Z,49.32
2018-09-14T14:03:58.034Z,49.68
2018-09-14T14:06:28.145Z,49.53
2018-09-14T14:08:56.557Z,51.08
2018-09-14T14:11:24.993Z,50.87
2018-09-14T14:13:53.433Z,51.12
2018-09-14T14:16:21.857Z,51.29
2018-09-14T14:18:50.353Z,50.77
2018-09-14T14:21:18.757Z,50.99
2018-09-14T14:23:47.292Z,51.77
2018-09-14T14:26:15.749Z,51.42
2018-09-14T14:28:44.199Z,51.94
2018-09-14T14:31:12.605Z,51.07
2018-09-14T14:33:41.030Z,51.93
2018-09-14T14:36:09.494Z,50.68
2018-09-14T14:38:37.956Z,50.64
2018-09-14T14:41:06.450Z,50.95
2018-09-14T14:43:34.878Z,51.78
2018-09-14T14:46:03.285Z,51.31
2018-09-14T14:48:32.007Z,52.63
2018-09-14T14:51:00.434Z,52.06
2018-09-14T14:53:28.886Z,52.14
2018-09-14T14:55:57.326Z,51.88
2018-09-14T14:58:25.737Z,51.35
2018-09-14T15:00:54.221Z,51.54
2018-09-14T15:03:22.617Z,52.30
2018-09-14T15:05:51.067Z,51.54
2018-09-14T15:08:19.479Z,52.73
2018-09-14T15:10:50.742Z,52.56
2018-09-14T15:13:19.878Z,52.55
2018-09-14T15:15:48.565Z,51.71
2018-09-14T15:18:16.959Z,52.23
2018-09-14T15:20:45.420Z,51.27
2018-09-14T15:23:13.833Z,50.62
2018-09-14T15:25:42.285Z,51.34
2018-09-14T15:28:10.692Z,50.95
2018-09-14T15:30:41.066Z,50.89
2018-09-14T15:33:09.778Z,50.57
2018-09-14T15:35:38.250Z,50.84
2018-09-14T15:38:06.678Z,50.56
2018-09-14T15:40:35.162Z,51.55
2018-09-14T15:43:03.553Z,51.61
2018-09-14T15:45:32.005Z,51.66
2018-09-14T15:48:00.402Z,51.68
2018-09-14T15:50:28.834Z,51.73
2018-09-14T15:52:57.278Z,52.07
2018-09-14T15:55:25.685Z,52.49
2018-09-14T15:57:54.170Z,52.11
2018-09-14T16:00:22.998Z,51.65
2018-09-14T16:02:52.742Z,51.75
2018-09-14T16:05:21.134Z,51.26
2018-09-14T16:07:49.802Z,50.80
2018-09-14T16:10:24.369Z,51.81
2018-09-14T16:12:52.855Z,51.69
2018-09-14T16:15:21.246Z,51.52
2018-09-14T16:17:49.666Z,51.20
2018-09-14T16:20:18.085Z,50.84
2018-09-14T16:22:46.510Z,51.13
2018-09-14T16:25:14.909Z,52.22
2018-09-14T16:27:43.354Z,52.44
2018-09-14T16:30:11.750Z,51.41
2018-09-14T16:32:40.176Z,52.39
2018-09-14T16:35:08.626Z,51.95
2018-09-14T16:37:37.086Z,51.41
2018-09-14T16:40:05.619Z,52.15
2018-09-14T16:42:34.093Z,51.40
2018-09-14T16:45:02.776Z,51.83
2018-09-14T16:47:31.188Z,52.02
2018-09-14T16:49:59.611Z,51.76
2018-09-14T16:52:28.026Z,52.61
2018-09-14T16:54:56.462Z,53.05
2018-09-14T16:57:24.929Z,53.21
2018-09-14T16:59:53.421Z,53.38
2018-09-14T17:02:21.830Z,54.26
2018-09-14T17:04:50.259Z,54.53
2018-09-14T17:07:18.759Z,54.44
2018-09-14T17:09:47.265Z,55.46
2018-09-14T17:12:15.710Z,55.28
2018-09-14T17:14:44.213Z,56.36
2018-09-14T17:17:12.640Z,56.30
2018-09-14T17:19:41.075Z,57.27
2018-09-14T17:22:09.469Z,57.24
2018-09-14T17:24:37.898Z,57.61
2018-09-14T17:27:06.445Z,57.65
2018-09-14T17:29:34.901Z,57.36
2018-09-14T17:32:06.318Z,57.83
2018-09-14T17:34:34.922Z,57.70
2018-09-14T17:37:03.715Z,58.74
2018-09-14T17:39:32.117Z,58.66
2018-09-14T17:42:00.577Z,58.52
2018-09-14T17:44:29.020Z,59.01
2018-09-14T17:46:57.453Z,59.17
2018-09-14T17:49:25.861Z,59.51
2018-09-14T17:51:54.497Z,58.54
2018-09-14T17:54:22.894Z,59.62
2018-09-14T17:56:51.394Z,59.82
2018-09-14T17:59:19.792Z,59.81
2018-09-14T18:01:48.305Z,59.42
2018-09-14T18:04:16.689Z,59.48
2018-09-14T18:06:45.129Z,60.09
2018-09-14T18:09:13.554Z,60.24
2018-09-14T18:11:42.041Z,60.30
2018-09-14T18:14:10.920Z,61.13
2018-09-14T18:16:39.417Z,61.47
2018-09-14T18:19:07.856Z,61.29
2018-09-14T18:21:36.349Z,61.44
2018-09-14T18:24:04.755Z,60.99
2018-09-14T18:26:33.210Z,61.33
2018-09-14T18:29:02.048Z,61.86
2018-09-14T18:31:30.517Z,61.63
2018-09-14T18:33:58.940Z,61.07
2018-09-14T18:36:27.318Z,62.05
2018-09-14T18:38:55.768Z,61.88
2018-09-14T18:41:24.177Z,62.39
2018-09-14T18:43:52.629Z,62.74
2018-09-14T18:46:21.049Z,62.06
2018-09-14T18:48:49.512Z,62.09
2018-09-14T18:51:17.973Z,62.14
2018-09-14T18:53:46.449Z,62.44
2018-09-14T18:56:14.826Z,61.84
2018-09-14T18:58:43.261Z,62.72
2018-09-14T19:01:11.664Z,62.08
2018-09-14T19:03:40.107Z,62.02
2018-09-14T19:06:08.489Z,62.36
2018-09-14T19:08:36.917Z,63.27
2018-09-14T19:11:05.358Z,62.68
2018-09-14T19:13:33.845Z,63.80
2018-09-14T19:16:03.022Z,63.54
2018-09-14T19:18:31.528Z,63.74
2018-09-14T19:20:59.946Z,63.63
2018-09-14T19:23:28.403Z,63.90
2018-09-14T19:25:56.814Z,63.17
2018-09-14T19:28:25.341Z,63.87
2018-09-14T19:30:53.745Z,63.17
2018-09-14T19:33:22.218Z,63.29
2018-09-14T19:35:50.637Z,63.48
2018-09-14T19:38:19.087Z,62.98
2018-09-14T19:40:48.037Z,63.60
2018-09-14T19:43:16.585Z,63.50
2018-09-14T19:45:45.014Z,63.98
2018-09-14T19:48:13.510Z,64.30
2018-09-14T19:50:42.638Z,64.34
2018-09-14T19:53:11.055Z,63.51
2018-09-14T19:55:39.590Z,64.47
2018-09-14T19:58:08.081Z,64.05
2018-09-14T20:00:36.519Z,63.83
2018-09-14T20:03:04.946Z,64.33
2018-09-14T20:05:33.812Z,64.32
2018-09-14T20:08:03.009Z,64.11
2018-09-14T20:10:32.193Z,65.05
2018-09-14T20:13:00.634Z,64.67
2018-09-14T20:15:29.057Z,64.13
2018-09-14T20:17:57.553Z,64.85
2018-09-14T20:20:26.442Z,64.52
2018-09-14T20:22:54.846Z,65.73
2018-09-14T20:25:23.381Z,65.70
2018-09-14T20:27:52.088Z,65.74
2018-09-14T20:30:20.730Z,66.10
2018-09-14T20:32:49.634Z,65.72
2018-09-14T20:35:18.049Z,66.35
2018-09-14T20:37:53.036Z,66.42
2018-09-14T20:40:22.445Z,66.48
2018-09-14T20:42:50.976Z,66.72
2018-09-14T20:45:19.393Z,67.17
2018-09-14T20:47:48.066Z,67.17
2018-09-14T20:50:16.505Z,66.61
2018-09-14T20:52:45.078Z,67.03
2018-09-14T20:55:13.537Z,66.94
2018-09-14T20:57:42.208Z,66.23
2018-09-14T21:00:10.768Z,66.52
2018-09-14T21:02:39.256Z,66.18
2018-09-14T21:05:07.729Z,66.38
2018-09-14T21:07:36.223Z,67.03
2018-09-14T21:10:04.960Z,67.16
2018-09-14T21:12:33.695Z,67.11
2018-09-14T21:15:05.098Z,66.82
2018-09-14T21:17:33.730Z,67.29
2018-09-14T21:20:03.193Z,66.92
2018-09-14T21:22:31.862Z,67.14
2018-09-14T21:25:01.054Z,66.90
2018-09-14T21:27:29.753Z,67.14
2018-09-14T21:29:58.353Z,66.95
2018-09-14T21:32:27.017Z,66.37
2018-09-14T21:34:55.620Z,67.30
2018-09-14T21:37:24.180Z,67.13
2018-09-14T21:39:52.851Z,67.68
2018-09-14T21:42:21.621Z,67.15
2018-09-14T21:44:50.138Z,67.50
2018-09-14T21:47:18.610Z,67.30
2018-09-14T21:49:47.118Z,66.31
2018-09-14T21:52:15.713Z,66.89
2018-09-14T21:54:44.224Z,67.12
2018-09-14T21:57:12.639Z,66.68
2018-09-14T21:59:41.200Z,66.41
2018-09-14T22:02:09.628Z,67.11
2018-09-14T22:04:38.086Z,66.46
2018-09-14T22:07:07.250Z,66.30
2018-09-14T22:09:35.693Z,66.49
2018-09-14T22:12:04.148Z,67.27
2018-09-14T22:14:32.593Z,67.76
2018-09-14T22:17:01.042Z,67.92
2018-09-14T22:19:29.509Z,67.71
2018-09-14T22:21:57.989Z,68.32
2018-09-14T22:24:26.485Z,68.06
2018-09-14T22:26:54.914Z,67.38
2018-09-14T22:29:23.363Z,67.38
2018-09-14T22:31:51.783Z,67.44
2018-09-14T22:34:20.243Z,68.09
2018-09-14T22:36:48.672Z,68.08
2018-09-14T22:39:17.187Z,67.32
2018-09-14T22:41:45.666Z,67.23
2018-09-14T22:44:14.096Z,67.56
2018-09-14T22:46:42.573Z,67.49
2018-09-14T22:49:11.009Z,67.09
2018-09-14T22:51:39.580Z,67.30
2018-09-14T22:54:08.009Z,66.70
2018-09-14T22:56:36.489Z,67.42
2018-09-14T22:59:05.245Z,67.36
2018-09-14T23:01:33.767Z,66.69
2018-09-14T23:04:02.195Z,67.04
2018-09-14T23:06:30.693Z,67.26
2018-09-14T23:08:59.095Z,66.96
2018-09-14T23:11:27.544Z,67.30
2018-09-14T23:13:56.006Z,66.90
2018-09-14T23:16:24.497Z,66.97
2018-09-14T23:18:52.910Z,67.38
2018-09-14T23:21:21.308Z,67.00
2018-09-14T23:23:49.774Z,66.54
2018-09-14T23:26:20.713Z,66.45
2018-09-14T23:28:49.240Z,66.03
2018-09-14T23:31:17.635Z,67.00
2018-09-14T23:33:46.230Z,67.01
2018-09-14T23:36:14.640Z,67.48
2018-09-14T23:38:43.086Z,67.59
2018-09-14T23:41:11.481Z,68.00
2018-09-14T23:43:39.909Z,67.79
2018-09-14T23:46:08.306Z,68.14
2018-09-14T23:48:36.744Z,67.59
2018-09-14T23:51:05.262Z,67.56
2018-09-14T23:53:33.750Z,67.62
2018-09-14T23:56:03.014Z,67.80
2018-09-14T23:58:31.470Z,67.61
